createdAt,value
2022-09-10T00:02:07.622Z,1.10
2022-09-10T00:07:32.187Z,1.25
2022-09-10T00:12:55.979Z,1.10
2022-09-10T00:18:20.703Z,0.98
2022-09-10T00:23:45.868Z,1.40
2022-09-10T00:29:10.575Z,1.00
2022-09-10T00:34:32.996Z,0.90
2022-09-10T00:39:55.913Z,0.93
2022-09-10T00:45:23.922Z,1.20
2022-09-10T00:50:48.953Z,0.90
2022-09-10T00:56:10.722Z,1.23
2022-09-10T01:01:34.680Z,1.00
2022-09-10T01:06:56.671Z,1.40
2022-09-10T01:12:42.848Z,1.10
2022-09-10T01:18:48.142Z,1.20
2022-09-10T01:24:47.159Z,1.08
2022-09-10T01:30:31.540Z,1.30
2022-09-10T01:36:05.736Z,1.25
2022-09-10T01:41:28.949Z,1.10
2022-09-10T01:47:02.554Z,1.40
2022-09-10T01:52:56.383Z,0.98
2022-09-10T01:58:36.498Z,1.48
2022-09-10T02:04:02.947Z,1.40
2022-09-10T02:09:24.858Z,1.10
2022-09-10T02:14:55.314Z,1.10
2022-09-10T02:20:17.104Z,1.50
2022-09-10T02:25:38.773Z,1.27
2022-09-10T02:31:01.762Z,1.35
2022-09-10T02:36:26.221Z,1.58
2022-09-10T02:41:48.273Z,1.33
2022-09-10T02:47:09.893Z,1.25
2022-09-10T02:52:31.536Z,1.38
2022-09-10T02:57:54.042Z,1.33
2022-09-10T03:03:17.378Z,1.67
2022-09-10T03:08:39.205Z,1.63
2022-09-10T03:14:01.056Z,1.63
2022-09-10T03:19:22.799Z,1.42
2022-09-10T03:24:44.440Z,1.58
2022-09-10T03:30:06.798Z,1.67
2022-09-10T03:35:28.478Z,1.85
2022-09-10T03:40:51.328Z,1.83
2022-09-10T03:46:13.116Z,1.90
2022-09-10T03:51:35.463Z,1.70
2022-09-10T03:56:57.142Z,1.75
2022-09-10T04:02:18.932Z,1.80
2022-09-10T04:07:40.632Z,1.75
2022-09-10T04:13:02.369Z,1.52
2022-09-10T04:18:26.672Z,1.67
2022-09-10T04:23:48.349Z,2.10
2022-09-10T04:29:10.003Z,1.75
2022-09-10T04:34:31.648Z,1.88
2022-09-10T04:39:54.277Z,1.90
2022-09-10T04:45:16.326Z,1.80
2022-09-10T04:50:54.001Z,2.15
2022-09-10T04:56:22.233Z,2.03
2022-09-10T05:01:43.870Z,2.30
2022-09-10T05:07:05.722Z,2.50
2022-09-10T05:12:27.334Z,1.73
2022-09-10T05:17:49.451Z,2.40
2022-09-10T05:23:11.228Z,2.60
2022-09-10T05:28:33.143Z,2.45
2022-09-10T05:33:59.448Z,2.92
2022-09-10T05:39:21.147Z,2.28
2022-09-10T05:44:42.799Z,2.70
2022-09-10T05:50:05.461Z,2.53
2022-09-10T05:55:27.490Z,3.17
2022-09-10T06:00:52.202Z,3.00
2022-09-10T06:06:13.894Z,2.70
2022-09-10T06:11:35.604Z,2.55
2022-09-10T06:16:57.235Z,2.90
2022-09-10T06:22:18.937Z,3.60
2022-09-10T06:27:41.550Z,4.05
2022-09-10T06:33:03.347Z,4.45
2022-09-10T06:38:28.002Z,4.00
2022-09-10T06:43:49.748Z,4.70
2022-09-10T06:49:11.995Z,4.97
2022-09-10T06:54:33.657Z,4.40
2022-09-10T06:59:55.450Z,4.20
2022-09-10T07:05:17.109Z,3.92
2022-09-10T07:10:39.514Z,4.65
2022-09-10T07:16:02.206Z,3.25
2022-09-10T07:21:25.535Z,2.85
2022-09-10T07:26:47.286Z,3.20
2022-09-10T07:32:13.229Z,2.90
2022-09-10T07:37:35.831Z,2.40
2022-09-10T07:42:57.647Z,2.50
2022-09-10T07:48:19.424Z,2.47
2022-09-10T07:53:50.074Z,2.50
2022-09-10T07:59:13.494Z,3.13
2022-09-10T08:04:37.711Z,3.03
2022-09-10T08:09:59.351Z,2.00
2022-09-10T08:15:21.143Z,2.50
2022-09-10T08:20:42.861Z,2.30
2022-09-10T08:26:06.729Z,2.40
2022-09-10T08:31:28.666Z,2.70
2022-09-10T08:36:50.435Z,2.50
2022-09-10T08:42:27.723Z,2.47
2022-09-10T08:48:02.817Z,2.20
2022-09-10T08:53:26.052Z,2.70
2022-09-10T08:58:50.525Z,2.30
2022-09-10T09:04:28.888Z,2.27
2022-09-10T09:09:52.024Z,2.03
2022-09-10T09:15:19.742Z,2.72
2022-09-10T09:20:48.473Z,2.55
2022-09-10T09:26:13.801Z,2.70
2022-09-10T09:37:16.583Z,2.72
2022-09-10T09:42:47.446Z,3.53
2022-09-10T09:48:13.708Z,3.28
2022-09-10T09:53:35.689Z,3.70
2022-09-10T09:59:11.846Z,4.75
2022-09-10T10:04:41.498Z,4.13
2022-09-10T10:10:08.085Z,4.13
2022-09-10T10:15:42.561Z,3.70
2022-09-10T10:21:10.497Z,4.10
2022-09-10T10:26:36.399Z,5.05
2022-09-10T10:31:59.199Z,4.75
2022-09-10T10:37:46.829Z,5.03
2022-09-10T10:43:39.049Z,4.55
2022-09-10T10:49:27.898Z,3.35
2022-09-10T10:55:10.207Z,3.92
2022-09-10T11:00:44.283Z,3.60
2022-09-10T11:06:20.360Z,3.50
2022-09-10T11:12:08.064Z,2.83
2022-09-10T11:17:47.388Z,2.78
2022-09-10T11:23:27.966Z,2.40
2022-09-10T11:29:23.457Z,2.45
2022-09-10T11:35:10.113Z,2.25
2022-09-10T11:41:07.042Z,2.47
2022-09-10T11:52:02.349Z,2.22
2022-09-10T11:58:19.589Z,2.67
2022-09-10T12:04:17.483Z,3.17
2022-09-10T12:09:51.268Z,2.80
2022-09-10T12:15:21.940Z,2.75
2022-09-10T12:20:57.284Z,2.30
2022-09-10T12:26:22.480Z,2.50
2022-09-10T12:32:27.154Z,2.45
2022-09-10T12:37:49.142Z,2.13
2022-09-10T12:43:43.549Z,2.35
2022-09-10T12:49:14.167Z,2.08
2022-09-10T12:55:02.221Z,2.35
2022-09-10T13:00:26.125Z,2.13
2022-09-10T13:05:51.962Z,1.80
2022-09-10T13:11:24.613Z,2.25
2022-09-10T13:16:46.718Z,2.00
2022-09-10T13:22:31.927Z,2.03
2022-09-10T13:27:53.752Z,1.70
2022-09-10T13:33:21.757Z,1.83
2022-09-10T13:39:26.772Z,1.70
2022-09-10T13:45:22.025Z,1.50
2022-09-10T13:51:08.352Z,1.50
2022-09-10T13:56:32.365Z,1.52
2022-09-10T14:01:55.674Z,1.38
2022-09-10T14:07:21.430Z,1.40
2022-09-10T14:12:43.501Z,1.48
2022-09-10T14:18:05.551Z,0.90
2022-09-10T14:23:29.743Z,1.20
2022-09-10T14:29:03.591Z,1.10
2022-09-10T14:34:32.496Z,1.40
2022-09-10T14:39:56.781Z,1.55
2022-09-10T14:45:49.906Z,1.30
2022-09-10T14:51:25.704Z,1.23
2022-09-10T14:56:48.839Z,1.02
2022-09-10T15:02:16.123Z,1.38
2022-09-10T15:07:38.137Z,1.42
2022-09-10T15:13:00.207Z,1.30
2022-09-10T15:18:22.810Z,1.10
2022-09-10T15:23:44.655Z,1.05
2022-09-10T15:29:06.339Z,1.10
2022-09-10T15:34:28.693Z,1.65
2022-09-10T15:39:51.827Z,1.50
2022-09-10T15:45:13.664Z,1.80
2022-09-10T15:50:37.561Z,1.38
2022-09-10T15:56:10.156Z,1.58
2022-09-10T16:01:32.583Z,1.70
2022-09-10T16:06:54.258Z,1.60
2022-09-10T16:12:17.567Z,1.27
2022-09-10T16:17:39.212Z,1.05
2022-09-10T16:23:00.912Z,1.35
2022-09-10T16:28:22.654Z,1.30
2022-09-10T16:33:45.578Z,1.33
2022-09-10T16:39:12.558Z,1.10
2022-09-10T16:44:34.716Z,1.05
2022-09-10T16:49:56.327Z,0.80
2022-09-10T16:55:17.984Z,1.10
2022-09-10T17:00:42.879Z,1.10
2022-09-10T17:06:05.260Z,1.10
2022-09-10T17:11:31.593Z,1.02
2022-09-10T17:16:53.384Z,1.00
2022-09-10T17:22:15.022Z,0.80
2022-09-10T17:27:36.700Z,1.00
2022-09-10T17:32:59.672Z,0.90
2022-09-10T17:38:21.475Z,0.90
2022-09-10T17:43:44.656Z,0.90
2022-09-10T17:49:06.664Z,0.82
2022-09-10T17:54:28.294Z,0.88
2022-09-10T17:59:50.012Z,0.60
2022-09-10T18:05:12.077Z,0.77
2022-09-10T18:10:34.676Z,0.63
2022-09-10T18:15:56.381Z,0.80
2022-09-10T18:21:20.734Z,0.90
2022-09-10T18:26:44.530Z,0.73
2022-09-10T18:32:07.501Z,0.50
2022-09-10T18:37:30.099Z,0.95
2022-09-10T18:42:52.525Z,1.88
2022-09-10T18:48:14.153Z,1.50
2022-09-10T18:53:36.693Z,1.80
2022-09-10T18:59:05.737Z,1.60
2022-09-10T19:04:29.464Z,1.23
2022-09-10T19:09:51.136Z,1.20
2022-09-10T19:15:12.796Z,1.20
2022-09-10T19:20:36.969Z,1.35
2022-09-10T19:25:59.144Z,1.00
2022-09-10T19:31:20.931Z,0.98
2022-09-10T19:36:43.673Z,0.90
2022-09-10T19:42:06.900Z,1.27
2022-09-10T19:47:28.529Z,1.27
2022-09-10T19:52:50.857Z,1.17
2022-09-10T19:58:12.512Z,1.00
2022-09-10T20:03:36.343Z,1.52
2022-09-10T20:08:58.272Z,1.10
2022-09-10T20:14:20.324Z,1.10
2022-09-10T20:19:41.929Z,1.25
2022-09-10T20:25:03.799Z,1.08
2022-09-10T20:30:25.456Z,1.10
2022-09-10T20:35:47.181Z,0.90
2022-09-10T20:41:09.908Z,0.80
2022-09-10T20:46:32.306Z,0.98
2022-09-10T20:51:54.001Z,0.82
2022-09-10T20:57:16.726Z,0.90
2022-09-10T21:02:39.298Z,1.08
2022-09-10T21:08:00.947Z,1.25
2022-09-10T21:13:25.121Z,1.25
2022-09-10T21:18:54.151Z,1.30
2022-09-10T21:24:22.695Z,1.30
2022-09-10T21:29:44.991Z,1.45
2022-09-10T21:35:07.500Z,2.33
2022-09-10T21:40:29.165Z,1.30
2022-09-10T21:45:51.157Z,0.90
2022-09-10T21:51:15.840Z,1.08
2022-09-10T21:56:37.519Z,1.20
2022-09-10T22:01:59.426Z,0.98
2022-09-10T22:07:21.255Z,1.00
2022-09-10T22:12:42.933Z,1.30
2022-09-10T22:18:04.857Z,1.02
2022-09-10T22:23:34.894Z,1.13
2022-09-10T22:28:59.548Z,0.90
2022-09-10T22:34:21.272Z,1.00
2022-09-10T22:39:42.989Z,1.00
2022-09-10T22:45:05.221Z,0.82
2022-09-10T22:50:27.101Z,1.00
2022-09-10T22:55:49.562Z,0.98
2022-09-10T23:01:16.327Z,1.20
2022-09-10T23:06:39.372Z,1.33
2022-09-10T23:12:01.451Z,1.05
2022-09-10T23:17:23.153Z,1.15
2022-09-10T23:22:44.822Z,1.05
2022-09-10T23:28:07.457Z,0.98
2022-09-10T23:33:29.242Z,0.80
2022-09-10T23:38:51.158Z,0.73
2022-09-10T23:44:12.825Z,1.20
2022-09-10T23:49:34.571Z,1.00
2022-09-10T23:54:56.697Z,0.93
